Карточка аэропорта UMKK

Внимание!
Информация на этой странице в стадии наполнения.
Если вы не увидели какой-то информации, или заметили неточность - пожалуйста сообщите нам!
Спасибо!
Команда RU-STAFF
Название аэропортаХраброво
Название аэропорта (англ.)Khrabrovo
Превышение43 ft. (13.1 m.)
Координаты54°53.4', 20°35.55'
Высота перехода4000ft
Эшелон переходаFL50 (QNH>=1013hPa); FL60 (QNH<1013hPa); FL50 (QNH<977hPa);
Коды ответчика6620-6637
Зона ОрВДКалининград РПИ (UMKK)
Данные METARUMKK 070600Z 19002MPS 6000 -RA BKN003 OVC016 01/01 Q1003 R24/290095 NOSIG RMK QBB100 OBST OBSC QFE751/1002
Проноз погоды (TAF)UMKK 070458Z 0706/0806 VRB01MPS 4500 -RASN BR BKN004 OVC016 TEMPO 0706/0710 1500 -RASN BR OVC003 FM071000 24005G10MPS 6000 BKN006 TEMPO 0710/0715 0800 +SHSNRA BKN003 BKN010CB BECMG 0715/0717 2000 SHSN BKN004 BKN012CB TEMPO 0717/0806 26007G15MPS 0300 +SHSN BKN002 BKN010CB
NOTAMshow/hide NOTAM
AWOS   TABLE

Информация о ВПП

ВПП Длина ВПП (м.) Покрытие Курс ВПП Частота ILS
063350Асфальтобетон60110.3
243350Асфальтобетон240109.5

Диспетчерские позиции

Позывной Наименование органа УВД Частота
UMKK_TWRКалининград-Вышка127.2
UMKK_APPКалининград-Подход126.0



Спутниковое изображение